createdAt,value
2018-06-17T00:00:42.284Z,0.00
2018-06-17T00:02:35.071Z,0.00
2018-06-17T00:03:34.998Z,0.00
2018-06-17T00:05:27.787Z,0.00
2018-06-17T00:06:27.708Z,0.00
2018-06-17T00:08:20.527Z,0.00
2018-06-17T00:09:20.439Z,0.00
2018-06-17T00:11:13.235Z,0.00
2018-06-17T00:12:13.175Z,0.00
2018-06-17T00:14:06.056Z,0.00
2018-06-17T00:15:05.980Z,0.00
2018-06-17T00:16:58.779Z,0.00
2018-06-17T00:17:58.719Z,0.00
2018-06-17T00:19:51.555Z,0.00
2018-06-17T00:20:51.474Z,0.00
2018-06-17T00:22:44.238Z,0.00
2018-06-17T00:23:44.180Z,0.00
2018-06-17T00:25:36.963Z,0.00
2018-06-17T00:26:36.901Z,0.00
2018-06-17T00:28:29.684Z,0.00
2018-06-17T00:29:29.620Z,0.00
2018-06-17T00:31:22.399Z,0.00
2018-06-17T00:32:22.350Z,0.00
2018-06-17T00:34:15.137Z,0.00
2018-06-17T00:35:15.066Z,0.00
2018-06-17T00:37:07.837Z,0.00
2018-06-17T00:38:07.799Z,0.00
2018-06-17T00:40:00.597Z,0.00
2018-06-17T00:41:00.507Z,0.00
2018-06-17T00:42:53.274Z,0.00
2018-06-17T00:43:53.214Z,0.00
2018-06-17T00:45:46.059Z,0.00
2018-06-17T00:46:45.991Z,0.00
2018-06-17T00:48:38.753Z,0.00
2018-06-17T00:49:38.697Z,0.00
2018-06-17T00:51:31.501Z,0.00
2018-06-17T00:52:31.434Z,0.00
2018-06-17T00:54:24.237Z,0.00
2018-06-17T00:55:24.145Z,0.00
2018-06-17T00:57:16.921Z,0.00
2018-06-17T00:58:16.867Z,0.00
2018-06-17T01:00:09.689Z,0.00
2018-06-17T01:01:09.586Z,0.00
2018-06-17T01:03:02.405Z,0.00
2018-06-17T01:04:02.293Z,0.00
2018-06-17T01:05:55.120Z,0.00
2018-06-17T01:06:55.042Z,0.00
2018-06-17T01:08:47.824Z,0.00
2018-06-17T01:09:47.766Z,0.00
2018-06-17T01:11:40.556Z,0.00
2018-06-17T01:12:40.483Z,0.00
2018-06-17T01:14:33.269Z,0.00
2018-06-17T01:15:33.196Z,0.00
2018-06-17T01:17:25.992Z,0.00
2018-06-17T01:18:25.914Z,0.00
2018-06-17T01:20:18.732Z,0.00
2018-06-17T01:21:18.644Z,0.00
2018-06-17T01:23:11.431Z,0.00
2018-06-17T01:24:11.371Z,0.00
2018-06-17T01:26:04.172Z,0.00
2018-06-17T01:27:04.092Z,0.00
2018-06-17T01:28:56.886Z,0.00
2018-06-17T01:29:56.829Z,0.00
2018-06-17T01:31:49.637Z,0.00
2018-06-17T01:32:49.553Z,0.00
2018-06-17T01:34:42.351Z,0.00
2018-06-17T01:35:42.304Z,0.00
2018-06-17T01:37:35.095Z,0.00
2018-06-17T01:38:35.014Z,0.00
2018-06-17T01:40:27.855Z,0.00
2018-06-17T01:41:27.824Z,0.00
2018-06-17T01:43:20.538Z,0.00
2018-06-17T01:44:20.478Z,0.00
2018-06-17T01:46:13.768Z,0.00
2018-06-17T01:47:13.682Z,0.00
2018-06-17T01:49:06.474Z,0.00
2018-06-17T01:50:06.414Z,0.00
2018-06-17T01:51:59.227Z,0.00
2018-06-17T01:52:59.148Z,0.00
2018-06-17T01:54:51.942Z,0.00
2018-06-17T01:55:51.871Z,0.00
2018-06-17T01:57:44.685Z,0.00
2018-06-17T01:58:44.601Z,0.00
2018-06-17T02:00:37.433Z,0.00
2018-06-17T02:01:37.406Z,0.00
2018-06-17T02:03:30.145Z,0.00
2018-06-17T02:04:30.075Z,0.00
2018-06-17T02:06:23.237Z,0.00
2018-06-17T02:07:23.164Z,0.00
2018-06-17T02:09:15.992Z,4.00
2018-06-17T02:10:15.889Z,0.00
2018-06-17T02:12:08.675Z,0.00
2018-06-17T02:13:08.607Z,0.00
2018-06-17T02:15:01.418Z,4.00
2018-06-17T02:16:01.354Z,0.00
2018-06-17T02:17:54.144Z,4.00
2018-06-17T02:18:54.078Z,4.00
2018-06-17T02:20:46.892Z,4.00
2018-06-17T02:21:46.806Z,4.00
2018-06-17T02:23:39.611Z,4.00
2018-06-17T02:24:39.534Z,4.00
2018-06-17T02:26:32.332Z,4.00
2018-06-17T02:27:32.276Z,8.00
2018-06-17T02:29:25.050Z,8.00
2018-06-17T02:30:24.982Z,8.00
2018-06-17T02:32:17.773Z,8.00
2018-06-17T02:33:17.704Z,8.00
2018-06-17T02:35:10.470Z,12.00
2018-06-17T02:36:10.417Z,12.00
2018-06-17T02:38:03.199Z,12.00
2018-06-17T02:39:03.121Z,16.00
2018-06-17T02:40:55.909Z,20.00
2018-06-17T02:41:55.837Z,20.00
2018-06-17T02:43:48.631Z,20.00
2018-06-17T02:44:48.552Z,24.00
2018-06-17T02:46:41.327Z,28.00
2018-06-17T02:47:41.267Z,24.00
2018-06-17T02:49:34.048Z,32.00
2018-06-17T02:50:33.979Z,32.00
2018-06-17T02:52:26.767Z,36.00
2018-06-17T02:53:26.702Z,40.00
2018-06-17T02:55:19.500Z,44.00
2018-06-17T02:56:19.425Z,48.00
2018-06-17T02:58:12.218Z,52.00
2018-06-17T02:59:12.156Z,56.00
2018-06-17T03:01:04.956Z,60.00
2018-06-17T03:02:04.888Z,64.00
2018-06-17T03:03:57.768Z,72.00
2018-06-17T03:04:57.619Z,76.00
2018-06-17T03:06:50.397Z,80.00
2018-06-17T03:07:50.334Z,88.00
2018-06-17T03:09:43.116Z,96.00
2018-06-17T03:10:43.061Z,104.00
2018-06-17T03:12:35.819Z,112.00
2018-06-17T03:13:35.756Z,112.00
2018-06-17T03:15:28.543Z,124.00
2018-06-17T03:16:28.467Z,128.00
2018-06-17T03:18:21.263Z,140.00
2018-06-17T03:19:21.188Z,144.00
2018-06-17T03:21:13.964Z,156.00
2018-06-17T03:22:13.905Z,160.00
2018-06-17T03:24:06.694Z,172.00
2018-06-17T03:25:06.622Z,176.00
2018-06-17T03:26:59.389Z,188.00
2018-06-17T03:27:59.335Z,192.00
2018-06-17T03:29:52.125Z,208.00
2018-06-17T03:30:52.056Z,212.00
2018-06-17T03:32:44.829Z,228.00
2018-06-17T03:33:44.791Z,236.00
2018-06-17T03:35:37.550Z,252.00
2018-06-17T03:36:37.477Z,260.00
2018-06-17T03:38:30.275Z,276.00
2018-06-17T03:39:30.207Z,280.00
2018-06-17T03:41:22.987Z,296.00
2018-06-17T03:42:22.929Z,304.00
2018-06-17T03:44:15.719Z,324.00
2018-06-17T03:45:15.631Z,332.00
2018-06-17T03:47:08.404Z,348.00
2018-06-17T03:48:08.352Z,360.00
2018-06-17T03:50:01.131Z,372.00
2018-06-17T03:51:01.069Z,380.00
2018-06-17T03:52:53.838Z,396.00
2018-06-17T03:53:53.781Z,400.00
2018-06-17T03:55:46.567Z,416.00
2018-06-17T03:56:46.491Z,424.00
2018-06-17T03:58:39.289Z,440.00
2018-06-17T03:59:39.224Z,448.00
2018-06-17T04:01:32.037Z,464.00
2018-06-17T04:02:31.947Z,476.00
2018-06-17T04:04:24.746Z,492.00
2018-06-17T04:05:24.675Z,504.00
2018-06-17T04:07:17.559Z,520.00
2018-06-17T04:08:17.468Z,528.00
2018-06-17T04:10:10.325Z,548.00
2018-06-17T04:11:10.253Z,564.00
2018-06-17T04:13:03.040Z,588.00
2018-06-17T04:14:02.982Z,600.00
2018-06-17T04:15:55.806Z,632.00
2018-06-17T04:16:55.727Z,644.00
2018-06-17T04:18:48.531Z,680.00
2018-06-17T04:19:48.470Z,696.00
2018-06-17T04:21:41.310Z,728.00
2018-06-17T04:22:41.229Z,740.00
2018-06-17T04:24:34.022Z,760.00
2018-06-17T04:25:34.031Z,760.00
2018-06-17T04:27:26.745Z,760.00
2018-06-17T04:28:26.677Z,756.00
2018-06-17T04:30:19.522Z,756.00
2018-06-17T04:31:19.435Z,780.00
2018-06-17T04:33:12.216Z,804.00
2018-06-17T04:34:12.156Z,820.00
2018-06-17T04:36:04.987Z,848.00
2018-06-17T04:37:04.869Z,860.00
2018-06-17T04:38:57.666Z,884.00
2018-06-17T04:39:57.616Z,892.00
2018-06-17T04:41:50.403Z,916.00
2018-06-17T04:42:50.325Z,928.00
2018-06-17T04:44:43.104Z,960.00
2018-06-17T04:45:43.033Z,1368.00
2018-06-17T04:47:35.851Z,2904.00
2018-06-17T04:48:35.767Z,3668.00
2018-06-17T04:50:28.566Z,3840.00
2018-06-17T04:51:28.473Z,3856.00
2018-06-17T04:53:21.278Z,4004.00
2018-06-17T04:54:21.212Z,3992.00
2018-06-17T04:56:14.066Z,3868.00
2018-06-17T04:57:13.995Z,3536.00
2018-06-17T04:59:06.834Z,4004.00
2018-06-17T05:00:06.791Z,4004.00
2018-06-17T05:01:59.589Z,3940.00
2018-06-17T05:02:59.522Z,3852.00
2018-06-17T05:04:52.309Z,3708.00
2018-06-17T05:05:52.260Z,3632.00
2018-06-17T05:07:45.090Z,3752.00
2018-06-17T05:08:45.050Z,3820.00
2018-06-17T05:10:37.808Z,3892.00
2018-06-17T05:11:37.721Z,3988.00
2018-06-17T05:13:30.515Z,3936.00
2018-06-17T05:14:30.462Z,4040.00
2018-06-17T05:16:23.270Z,4212.00
2018-06-17T05:17:23.221Z,4280.00
2018-06-17T05:19:16.013Z,4332.00
2018-06-17T05:20:16.049Z,4232.00
2018-06-17T05:22:08.774Z,4340.00
2018-06-17T05:23:08.692Z,3996.00
2018-06-17T05:25:01.554Z,4436.00
2018-06-17T05:26:01.423Z,2276.00
2018-06-17T05:27:54.255Z,2616.00
2018-06-17T05:28:54.165Z,3992.00
2018-06-17T05:30:46.967Z,4428.00
2018-06-17T05:31:46.926Z,4532.00
2018-06-17T05:33:39.809Z,4724.00
2018-06-17T05:34:39.660Z,4748.00
2018-06-17T05:36:32.465Z,4804.00
2018-06-17T05:37:32.400Z,4760.00
2018-06-17T05:39:25.214Z,4852.00
2018-06-17T05:40:25.169Z,4840.00
2018-06-17T05:42:18.176Z,4956.00
2018-06-17T05:43:18.098Z,4968.00
2018-06-17T05:45:10.941Z,4956.00
2018-06-17T05:46:10.859Z,5004.00
2018-06-17T05:48:03.655Z,5036.00
2018-06-17T05:49:03.623Z,5068.00
2018-06-17T05:50:56.407Z,5112.00
2018-06-17T05:51:56.334Z,5120.00
2018-06-17T05:53:49.124Z,5200.00
2018-06-17T05:54:49.092Z,5168.00
2018-06-17T05:56:41.887Z,5124.00
2018-06-17T05:57:41.812Z,5128.00
2018-06-17T05:59:34.617Z,5148.00
2018-06-17T06:00:34.570Z,5092.00
2018-06-17T06:02:27.360Z,5036.00
2018-06-17T06:03:27.299Z,5052.00
2018-06-17T06:05:20.097Z,5104.00
2018-06-17T06:06:20.043Z,5128.00
2018-06-17T06:08:12.892Z,5068.00
2018-06-17T06:09:12.821Z,5024.00
2018-06-17T06:11:05.683Z,4972.00
2018-06-17T06:12:05.700Z,4956.00
2018-06-17T06:13:58.386Z,4820.00
2018-06-17T06:14:58.319Z,4752.00
2018-06-17T06:16:51.186Z,4708.00
2018-06-17T06:17:51.071Z,4648.00
2018-06-17T06:19:43.859Z,4192.00
2018-06-17T06:20:43.826Z,3948.00
2018-06-17T06:22:36.632Z,3508.00
2018-06-17T06:23:36.562Z,3208.00
2018-06-17T06:25:29.371Z,2828.00
2018-06-17T06:26:29.318Z,2652.00
2018-06-17T06:28:22.142Z,2412.00
2018-06-17T06:29:22.112Z,2280.00
2018-06-17T06:31:14.908Z,2136.00
2018-06-17T06:32:14.903Z,2128.00
2018-06-17T06:34:07.698Z,2408.00
2018-06-17T06:35:07.587Z,2444.00
2018-06-17T06:37:00.383Z,2228.00
2018-06-17T06:38:00.332Z,2008.00
2018-06-17T06:39:53.156Z,1860.00
2018-06-17T06:40:53.095Z,1824.00
2018-06-17T06:42:45.942Z,1808.00
2018-06-17T06:43:45.867Z,1780.00
2018-06-17T06:45:38.744Z,1772.00
2018-06-17T06:46:38.610Z,1748.00
2018-06-17T06:48:31.489Z,1732.00
2018-06-17T06:49:31.408Z,1716.00
2018-06-17T06:51:24.815Z,1708.00
2018-06-17T06:52:24.760Z,1692.00
2018-06-17T06:54:18.210Z,1684.00
2018-06-17T06:55:18.048Z,1680.00
2018-06-17T06:57:10.892Z,1664.00
2018-06-17T06:58:10.800Z,1660.00
2018-06-17T07:00:05.131Z,1660.00
2018-06-17T07:01:06.847Z,1640.00
2018-06-17T07:02:58.037Z,1636.00
2018-06-17T07:03:58.457Z,1628.00
2018-06-17T07:05:50.698Z,1624.00
2018-06-17T07:06:50.664Z,1620.00
2018-06-17T07:08:43.502Z,1612.00
2018-06-17T07:09:43.442Z,1620.00
2018-06-17T07:11:36.261Z,1608.00
2018-06-17T07:12:36.237Z,1620.00
2018-06-17T07:14:29.025Z,1628.00
2018-06-17T07:15:28.951Z,1640.00
2018-06-17T07:17:21.777Z,1636.00
2018-06-17T07:18:21.713Z,1620.00
2018-06-17T07:20:14.530Z,1628.00
2018-06-17T07:21:14.461Z,1636.00
2018-06-17T07:23:07.258Z,1616.00
2018-06-17T07:24:07.205Z,1616.00
2018-06-17T07:26:00.031Z,1592.00
2018-06-17T07:26:59.957Z,1592.00
2018-06-17T07:28:52.774Z,1592.00
2018-06-17T07:29:52.708Z,1564.00
2018-06-17T07:31:45.510Z,1572.00
2018-06-17T07:32:45.517Z,1560.00
2018-06-17T07:34:38.263Z,1572.00
2018-06-17T07:35:38.177Z,1576.00
2018-06-17T07:37:30.980Z,1576.00
2018-06-17T07:38:30.960Z,1564.00
2018-06-17T07:40:23.806Z,1604.00
2018-06-17T07:41:23.731Z,1632.00
2018-06-17T07:43:16.528Z,1632.00
2018-06-17T07:44:16.477Z,1160.00
2018-06-17T07:46:09.293Z,1444.00
2018-06-17T07:47:09.211Z,1620.00
2018-06-17T07:49:02.004Z,1684.00
2018-06-17T07:50:01.945Z,1680.00
2018-06-17T07:51:54.796Z,1664.00
2018-06-17T07:52:54.745Z,1732.00
2018-06-17T07:54:47.524Z,1732.00
2018-06-17T07:55:47.465Z,1744.00
2018-06-17T07:57:40.282Z,1740.00
2018-06-17T07:58:40.232Z,1776.00
2018-06-17T08:00:33.020Z,1792.00
2018-06-17T08:01:32.944Z,1776.00
2018-06-17T08:03:25.789Z,1816.00
2018-06-17T08:04:25.738Z,1828.00
2018-06-17T08:06:18.547Z,1844.00
2018-06-17T08:07:18.511Z,1844.00
2018-06-17T08:09:11.276Z,1692.00
2018-06-17T08:10:11.229Z,1500.00
2018-06-17T08:12:04.055Z,1604.00
2018-06-17T08:13:03.978Z,1860.00
2018-06-17T08:14:56.804Z,1560.00
2018-06-17T08:15:56.751Z,1760.00
2018-06-17T08:17:49.568Z,1900.00
2018-06-17T08:18:49.488Z,1864.00
2018-06-17T08:20:42.287Z,1936.00
2018-06-17T08:21:42.228Z,1944.00
2018-06-17T08:23:35.060Z,1732.00
2018-06-17T08:24:34.991Z,1844.00
2018-06-17T08:26:27.844Z,1900.00
2018-06-17T08:27:27.775Z,1888.00
2018-06-17T08:29:20.582Z,1864.00
2018-06-17T08:30:20.529Z,1776.00
2018-06-17T08:32:13.372Z,1704.00
2018-06-17T08:33:13.290Z,1524.00
2018-06-17T08:35:06.088Z,1088.00
2018-06-17T08:36:06.034Z,1028.00
2018-06-17T08:37:58.871Z,1620.00
2018-06-17T08:38:58.807Z,1512.00
2018-06-17T08:40:51.689Z,1560.00
2018-06-17T08:41:51.591Z,1844.00
2018-06-17T08:43:44.392Z,2128.00
2018-06-17T08:44:44.320Z,1456.00
2018-06-17T08:46:37.128Z,1688.00
2018-06-17T08:47:37.068Z,1960.00
2018-06-17T08:49:29.956Z,1004.00
2018-06-17T08:50:29.879Z,1344.00
2018-06-17T08:52:22.737Z,1208.00
2018-06-17T08:53:22.665Z,1232.00
2018-06-17T08:55:15.474Z,1576.00
2018-06-17T08:56:15.447Z,1252.00
2018-06-17T08:58:08.237Z,988.00
2018-06-17T08:59:08.152Z,860.00
2018-06-17T09:01:00.952Z,1144.00
2018-06-17T09:02:00.936Z,1268.00
2018-06-17T09:03:53.767Z,2048.00
2018-06-17T09:04:53.626Z,1972.00
2018-06-17T09:06:46.489Z,1916.00
2018-06-17T09:07:46.440Z,1848.00
2018-06-17T09:09:39.306Z,1848.00
2018-06-17T09:10:39.249Z,1820.00
2018-06-17T09:12:32.021Z,1056.00
2018-06-17T09:13:31.953Z,1788.00
2018-06-17T09:15:24.830Z,1860.00
2018-06-17T09:16:24.833Z,1048.00
2018-06-17T09:18:17.583Z,1784.00
2018-06-17T09:19:17.550Z,1768.00
2018-06-17T09:21:10.313Z,1700.00
2018-06-17T09:22:10.244Z,1656.00
2018-06-17T09:24:03.059Z,1672.00
2018-06-17T09:25:02.999Z,1640.00
2018-06-17T09:26:55.787Z,1628.00
2018-06-17T09:27:55.734Z,1624.00
2018-06-17T09:29:48.554Z,1624.00
2018-06-17T09:30:48.487Z,1624.00
2018-06-17T09:32:41.282Z,1596.00
2018-06-17T09:33:41.224Z,1608.00
2018-06-17T09:35:34.028Z,1596.00
2018-06-17T09:36:33.954Z,1608.00
2018-06-17T09:38:26.766Z,1596.00
2018-06-17T09:39:26.701Z,1572.00
2018-06-17T09:41:19.520Z,1560.00
2018-06-17T09:42:19.461Z,1568.00
2018-06-17T09:44:12.336Z,1552.00
2018-06-17T09:45:12.301Z,1552.00
2018-06-17T09:47:05.044Z,1548.00
2018-06-17T09:48:05.032Z,1532.00
2018-06-17T09:49:57.797Z,1528.00
2018-06-17T09:50:57.724Z,1520.00
2018-06-17T09:52:51.503Z,1524.00
2018-06-17T09:53:51.458Z,1504.00
2018-06-17T09:55:44.281Z,1544.00
2018-06-17T09:56:44.246Z,1544.00
2018-06-17T09:58:37.088Z,1536.00
2018-06-17T09:59:37.029Z,1516.00
2018-06-17T10:01:31.896Z,1512.00
2018-06-17T10:02:31.754Z,1484.00
2018-06-17T10:04:24.666Z,1460.00
2018-06-17T10:05:24.557Z,1452.00
2018-06-17T10:07:17.450Z,1420.00
2018-06-17T10:08:17.375Z,1428.00
2018-06-17T10:10:10.187Z,1424.00
2018-06-17T10:11:10.127Z,1404.00
2018-06-17T10:13:03.458Z,1420.00
2018-06-17T10:14:03.381Z,1420.00
2018-06-17T10:15:56.235Z,1456.00
2018-06-17T10:16:56.158Z,1360.00
2018-06-17T10:18:48.977Z,1140.00
2018-06-17T10:19:48.904Z,1084.00
2018-06-17T10:21:41.776Z,644.00
2018-06-17T10:22:41.761Z,624.00
2018-06-17T10:24:34.608Z,908.00
2018-06-17T10:25:34.526Z,988.00
2018-06-17T10:27:27.322Z,1500.00
2018-06-17T10:28:27.256Z,892.00
2018-06-17T10:30:20.131Z,1256.00
2018-06-17T10:31:20.061Z,1428.00
2018-06-17T10:33:12.913Z,1432.00
2018-06-17T10:34:12.830Z,716.00
2018-06-17T10:36:05.673Z,496.00
2018-06-17T10:37:05.581Z,460.00
2018-06-17T10:38:58.383Z,512.00
2018-06-17T10:39:58.314Z,488.00
2018-06-17T10:41:51.167Z,524.00
2018-06-17T10:42:51.073Z,704.00
2018-06-17T10:44:43.932Z,884.00
2018-06-17T10:45:43.853Z,1348.00
2018-06-17T10:47:36.654Z,792.00
2018-06-17T10:48:36.573Z,704.00
2018-06-17T10:50:30.049Z,1144.00
2018-06-17T10:51:29.879Z,1328.00
2018-06-17T10:53:22.736Z,1308.00
2018-06-17T10:54:22.799Z,708.00
2018-06-17T10:56:15.649Z,1204.00
2018-06-17T10:57:15.439Z,1200.00
2018-06-17T10:59:08.228Z,1276.00
2018-06-17T11:00:08.155Z,1060.00
2018-06-17T11:02:00.963Z,1268.00
2018-06-17T11:03:00.893Z,1232.00
2018-06-17T11:04:53.725Z,1116.00
2018-06-17T11:05:53.654Z,1132.00
2018-06-17T11:07:46.477Z,1192.00
2018-06-17T11:08:46.426Z,1188.00
2018-06-17T11:10:39.243Z,644.00
2018-06-17T11:11:39.180Z,1120.00
2018-06-17T11:13:31.972Z,660.00
2018-06-17T11:14:31.932Z,612.00
2018-06-17T11:16:24.773Z,1200.00
2018-06-17T11:17:24.649Z,1340.00
2018-06-17T11:19:17.446Z,1336.00
2018-06-17T11:20:17.393Z,824.00
2018-06-17T11:22:10.263Z,1080.00
2018-06-17T11:23:10.157Z,836.00
2018-06-17T11:25:02.977Z,692.00
2018-06-17T11:26:02.912Z,856.00
2018-06-17T11:27:55.723Z,560.00
2018-06-17T11:28:55.659Z,840.00
2018-06-17T11:30:48.482Z,616.00
2018-06-17T11:31:48.412Z,572.00
2018-06-17T11:33:41.235Z,788.00
2018-06-17T11:34:41.179Z,764.00
2018-06-17T11:36:34.079Z,584.00
2018-06-17T11:37:34.010Z,868.00
2018-06-17T11:39:26.819Z,996.00
2018-06-17T11:40:26.744Z,616.00
2018-06-17T11:42:19.552Z,956.00
2018-06-17T11:43:19.492Z,492.00
2018-06-17T11:45:12.918Z,844.00
2018-06-17T11:46:12.859Z,484.00
2018-06-17T11:48:05.876Z,432.00
2018-06-17T11:49:05.628Z,444.00
2018-06-17T11:50:58.486Z,468.00
2018-06-17T11:51:58.352Z,460.00
2018-06-17T11:53:51.160Z,432.00
2018-06-17T11:54:51.097Z,416.00
2018-06-17T11:56:43.917Z,468.00
2018-06-17T11:57:43.842Z,488.00
2018-06-17T11:59:36.748Z,552.00
2018-06-17T12:00:36.624Z,520.00
2018-06-17T12:02:29.455Z,544.00
2018-06-17T12:03:29.383Z,880.00
2018-06-17T12:05:22.193Z,852.00
2018-06-17T12:06:22.133Z,804.00
2018-06-17T12:08:14.934Z,836.00
2018-06-17T12:09:14.940Z,820.00
2018-06-17T12:11:07.694Z,572.00
2018-06-17T12:12:07.619Z,476.00
2018-06-17T12:14:00.472Z,504.00
2018-06-17T12:15:00.392Z,508.00
2018-06-17T12:16:53.199Z,792.00
2018-06-17T12:17:53.113Z,792.00
2018-06-17T12:19:45.931Z,664.00
2018-06-17T12:20:45.869Z,476.00
2018-06-17T12:22:38.722Z,732.00
2018-06-17T12:23:38.647Z,744.00
2018-06-17T12:25:31.558Z,448.00
2018-06-17T12:26:31.440Z,448.00
2018-06-17T12:28:24.236Z,772.00
2018-06-17T12:29:24.167Z,544.00
2018-06-17T12:31:16.980Z,412.00
2018-06-17T12:32:16.923Z,388.00
2018-06-17T12:34:09.752Z,420.00
2018-06-17T12:35:09.675Z,484.00
2018-06-17T12:37:02.494Z,780.00
2018-06-17T12:38:02.424Z,588.00
2018-06-17T12:39:55.217Z,860.00
2018-06-17T12:40:55.143Z,868.00
2018-06-17T12:42:47.949Z,860.00
2018-06-17T12:43:47.880Z,632.00
2018-06-17T12:45:40.695Z,572.00
2018-06-17T12:46:40.624Z,708.00
2018-06-17T12:48:33.502Z,812.00
2018-06-17T12:49:33.403Z,704.00
2018-06-17T12:51:26.207Z,868.00
2018-06-17T12:52:26.201Z,468.00
2018-06-17T12:54:18.935Z,460.00
2018-06-17T12:55:18.872Z,820.00
2018-06-17T12:57:11.672Z,620.00
2018-06-17T12:58:11.620Z,632.00
2018-06-17T13:00:04.411Z,772.00
2018-06-17T13:01:04.354Z,764.00
2018-06-17T13:02:57.224Z,368.00
2018-06-17T13:03:57.127Z,500.00
2018-06-17T13:05:49.931Z,344.00
2018-06-17T13:06:49.868Z,312.00
2018-06-17T13:08:42.696Z,352.00
2018-06-17T13:09:42.617Z,400.00
2018-06-17T13:11:35.409Z,564.00
2018-06-17T13:12:35.363Z,524.00
2018-06-17T13:14:28.168Z,888.00
2018-06-17T13:15:28.099Z,916.00
2018-06-17T13:17:20.960Z,860.00
2018-06-17T13:18:20.841Z,632.00
2018-06-17T13:20:13.662Z,844.00
2018-06-17T13:21:13.629Z,844.00
2018-06-17T13:23:06.439Z,868.00
2018-06-17T13:24:06.419Z,820.00
2018-06-17T13:25:59.206Z,828.00
2018-06-17T13:26:59.125Z,816.00
2018-06-17T13:28:51.943Z,432.00
2018-06-17T13:29:51.874Z,820.00
2018-06-17T13:31:44.739Z,688.00
2018-06-17T13:32:44.672Z,628.00
2018-06-17T13:34:37.502Z,656.00
2018-06-17T13:35:37.429Z,560.00
2018-06-17T13:37:30.267Z,876.00
2018-06-17T13:38:30.210Z,872.00
2018-06-17T13:40:23.140Z,768.00
2018-06-17T13:41:23.061Z,832.00
2018-06-17T13:43:15.945Z,796.00
2018-06-17T13:44:15.883Z,520.00
2018-06-17T13:46:09.561Z,776.00
2018-06-17T13:47:09.509Z,812.00
2018-06-17T13:49:02.343Z,824.00
2018-06-17T13:50:02.258Z,828.00
2018-06-17T13:51:55.058Z,840.00
2018-06-17T13:52:54.991Z,812.00
2018-06-17T13:54:47.883Z,832.00
2018-06-17T13:55:47.771Z,792.00
2018-06-17T13:57:40.616Z,404.00
2018-06-17T13:58:40.548Z,660.00
2018-06-17T14:00:33.517Z,376.00
2018-06-17T14:01:33.543Z,456.00
2018-06-17T14:03:26.309Z,352.00
2018-06-17T14:04:26.189Z,392.00
2018-06-17T14:06:19.048Z,888.00
2018-06-17T14:07:19.055Z,732.00
2018-06-17T14:09:11.824Z,420.00
2018-06-17T14:10:11.752Z,868.00
2018-06-17T14:12:04.591Z,920.00
2018-06-17T14:13:04.501Z,904.00
2018-06-17T14:14:57.425Z,868.00
2018-06-17T14:15:57.310Z,876.00
2018-06-17T14:17:50.176Z,532.00
2018-06-17T14:18:50.168Z,856.00
2018-06-17T14:20:42.995Z,644.00
2018-06-17T14:21:42.907Z,952.00
2018-06-17T14:23:35.730Z,736.00
2018-06-17T14:24:35.692Z,948.00
2018-06-17T14:26:28.530Z,376.00
2018-06-17T14:27:28.459Z,368.00
2018-06-17T14:29:21.330Z,692.00
2018-06-17T14:30:21.255Z,612.00
2018-06-17T14:32:14.095Z,904.00
2018-06-17T14:33:14.031Z,924.00
2018-06-17T14:35:06.855Z,892.00
2018-06-17T14:36:06.798Z,908.00
2018-06-17T14:37:59.599Z,936.00
2018-06-17T14:38:59.537Z,808.00
2018-06-17T14:40:52.385Z,368.00
2018-06-17T14:41:52.321Z,340.00
2018-06-17T14:43:45.116Z,300.00
2018-06-17T14:44:45.042Z,284.00
2018-06-17T14:46:37.875Z,272.00
2018-06-17T14:47:37.833Z,284.00
2018-06-17T14:49:30.677Z,304.00
2018-06-17T14:50:30.597Z,304.00
2018-06-17T14:52:23.440Z,340.00
2018-06-17T14:53:23.405Z,356.00
2018-06-17T14:55:16.206Z,352.00
2018-06-17T14:56:16.139Z,356.00
2018-06-17T14:58:08.935Z,400.00
2018-06-17T14:59:08.861Z,356.00
2018-06-17T15:01:01.817Z,372.00
2018-06-17T15:02:01.691Z,364.00
2018-06-17T15:03:54.569Z,316.00
2018-06-17T15:04:54.413Z,308.00
2018-06-17T15:06:47.760Z,484.00
2018-06-17T15:07:47.708Z,664.00
2018-06-17T15:09:40.629Z,636.00
2018-06-17T15:10:40.518Z,584.00
2018-06-17T15:12:33.541Z,676.00
2018-06-17T15:13:33.442Z,640.00
2018-06-17T15:15:26.217Z,808.00
2018-06-17T15:16:26.159Z,812.00
2018-06-17T15:18:19.063Z,720.00
2018-06-17T15:19:18.949Z,604.00
2018-06-17T15:21:11.793Z,780.00
2018-06-17T15:22:11.718Z,660.00
2018-06-17T15:24:04.512Z,364.00
2018-06-17T15:25:04.449Z,368.00
2018-06-17T15:26:57.287Z,736.00
2018-06-17T15:27:57.205Z,760.00
2018-06-17T15:29:49.999Z,740.00
2018-06-17T15:30:49.971Z,656.00
2018-06-17T15:32:42.770Z,628.00
2018-06-17T15:33:42.687Z,700.00
2018-06-17T15:35:35.497Z,772.00
2018-06-17T15:36:35.454Z,764.00
2018-06-17T15:38:28.299Z,688.00
2018-06-17T15:39:28.232Z,828.00
2018-06-17T15:41:21.103Z,868.00
2018-06-17T15:42:20.993Z,848.00
2018-06-17T15:44:13.884Z,928.00
2018-06-17T15:45:13.712Z,912.00
2018-06-17T15:47:06.544Z,920.00
2018-06-17T15:48:06.525Z,928.00
2018-06-17T15:49:59.228Z,412.00
2018-06-17T15:50:59.195Z,348.00
2018-06-17T15:52:51.956Z,316.00
2018-06-17T15:53:51.908Z,312.00
2018-06-17T15:55:44.665Z,668.00
2018-06-17T15:56:44.608Z,312.00
2018-06-17T15:58:37.413Z,284.00
2018-06-17T15:59:37.336Z,632.00
2018-06-17T16:01:30.156Z,620.00
2018-06-17T16:02:30.100Z,796.00
2018-06-17T16:04:22.967Z,780.00
2018-06-17T16:05:22.882Z,296.00
2018-06-17T16:07:15.752Z,272.00
2018-06-17T16:08:15.687Z,272.00
2018-06-17T16:10:08.494Z,280.00
2018-06-17T16:11:08.432Z,264.00
2018-06-17T16:13:01.229Z,260.00
2018-06-17T16:14:01.145Z,268.00
2018-06-17T16:15:54.004Z,280.00
2018-06-17T16:16:53.944Z,352.00
2018-06-17T16:18:46.908Z,728.00
2018-06-17T16:19:46.713Z,700.00
2018-06-17T16:21:39.484Z,716.00
2018-06-17T16:22:39.476Z,376.00
2018-06-17T16:24:32.257Z,628.00
2018-06-17T16:25:32.179Z,632.00
2018-06-17T16:27:24.975Z,564.00
2018-06-17T16:28:24.928Z,628.00
2018-06-17T16:30:17.715Z,524.00
2018-06-17T16:31:17.656Z,472.00
2018-06-17T16:33:10.476Z,232.00
2018-06-17T16:34:10.395Z,508.00
2018-06-17T16:36:03.214Z,252.00
2018-06-17T16:37:03.107Z,276.00
2018-06-17T16:38:55.921Z,296.00
2018-06-17T16:39:55.848Z,284.00
2018-06-17T16:41:48.640Z,344.00
2018-06-17T16:42:48.586Z,444.00
2018-06-17T16:44:41.397Z,620.00
2018-06-17T16:45:41.315Z,568.00
2018-06-17T16:47:34.143Z,556.00
2018-06-17T16:48:34.098Z,568.00
2018-06-17T16:50:26.875Z,260.00
2018-06-17T16:51:26.779Z,288.00
2018-06-17T16:53:19.632Z,296.00
2018-06-17T16:54:19.547Z,368.00
2018-06-17T16:56:12.361Z,204.00
2018-06-17T16:57:12.295Z,196.00
2018-06-17T16:59:05.077Z,224.00
2018-06-17T17:00:05.011Z,212.00
2018-06-17T17:01:57.790Z,200.00
2018-06-17T17:02:57.729Z,188.00
2018-06-17T17:04:50.523Z,208.00
2018-06-17T17:05:50.458Z,212.00
2018-06-17T17:07:43.221Z,228.00
2018-06-17T17:08:43.171Z,232.00
2018-06-17T17:10:35.962Z,260.00
2018-06-17T17:11:35.895Z,248.00
2018-06-17T17:13:28.726Z,256.00
2018-06-17T17:14:28.674Z,344.00
2018-06-17T17:16:21.474Z,300.00
2018-06-17T17:17:21.402Z,252.00
2018-06-17T17:19:14.179Z,212.00
2018-06-17T17:20:14.115Z,216.00
2018-06-17T17:22:06.946Z,200.00
2018-06-17T17:23:06.844Z,220.00
2018-06-17T17:24:59.633Z,212.00
2018-06-17T17:25:59.563Z,188.00
2018-06-17T17:27:52.354Z,176.00
2018-06-17T17:28:52.298Z,172.00
2018-06-17T17:30:45.078Z,160.00
2018-06-17T17:31:45.008Z,156.00
2018-06-17T17:33:37.788Z,148.00
2018-06-17T17:34:37.731Z,152.00
2018-06-17T17:36:30.532Z,148.00
2018-06-17T17:37:30.459Z,144.00
2018-06-17T17:39:23.260Z,136.00
2018-06-17T17:40:23.197Z,136.00
2018-06-17T17:42:16.029Z,128.00
2018-06-17T17:43:15.923Z,128.00
2018-06-17T17:45:08.693Z,124.00
2018-06-17T17:46:08.638Z,128.00
2018-06-17T17:48:01.424Z,124.00
2018-06-17T17:49:01.370Z,120.00
2018-06-17T17:50:54.152Z,124.00
2018-06-17T17:51:54.089Z,120.00
2018-06-17T17:53:46.859Z,124.00
2018-06-17T17:54:46.805Z,144.00
2018-06-17T17:56:39.607Z,216.00
2018-06-17T17:57:39.524Z,188.00